createdAt,value
2023-03-18T00:04:09.522Z,5.53
2023-03-18T00:09:18.915Z,4.93
2023-03-18T00:14:23.922Z,5.00
2023-03-18T00:19:29.642Z,5.23
2023-03-18T00:24:37.208Z,5.20
2023-03-18T00:29:44.001Z,5.13
2023-03-18T00:34:53.182Z,5.43
2023-03-18T00:40:05.994Z,5.03
2023-03-18T00:45:13.848Z,5.20
2023-03-18T00:50:20.504Z,5.10
2023-03-18T00:55:29.132Z,5.03
2023-03-18T01:00:36.157Z,5.87
2023-03-18T01:05:45.484Z,5.50
2023-03-18T01:10:53.289Z,5.03
2023-03-18T01:15:58.824Z,6.17
2023-03-18T01:21:04.123Z,4.73
2023-03-18T01:26:16.874Z,5.20
2023-03-18T01:31:28.904Z,5.80
2023-03-18T01:36:38.824Z,5.77
2023-03-18T01:41:50.463Z,5.03
2023-03-18T01:47:04.927Z,5.67
2023-03-18T01:52:16.464Z,5.60
2023-03-18T01:57:28.398Z,5.00
2023-03-18T02:02:35.088Z,5.77
2023-03-18T02:07:43.045Z,4.70
2023-03-18T02:12:54.154Z,5.17
2023-03-18T02:18:10.852Z,5.60
2023-03-18T02:23:29.654Z,5.07
2023-03-18T02:28:40.276Z,4.67
2023-03-18T02:33:49.154Z,4.73
2023-03-18T02:38:58.284Z,5.10
2023-03-18T02:44:07.420Z,5.33
2023-03-18T02:49:24.813Z,5.10
2023-03-18T02:54:32.988Z,5.20
2023-03-18T02:59:40.526Z,4.93
2023-03-18T03:04:50.465Z,5.37
2023-03-18T03:10:00.444Z,4.90
2023-03-18T03:15:10.821Z,5.70
2023-03-18T03:20:26.110Z,5.37
2023-03-18T03:25:31.534Z,5.90
2023-03-18T03:30:40.405Z,4.73
2023-03-18T03:35:55.521Z,5.27
2023-03-18T03:41:05.198Z,5.93
2023-03-18T03:46:16.822Z,4.77
2023-03-18T03:51:24.678Z,5.20
2023-03-18T03:56:31.669Z,5.40
2023-03-18T04:01:41.271Z,4.70
2023-03-18T04:06:46.617Z,5.57
2023-03-18T04:11:57.391Z,4.70
2023-03-18T04:17:05.217Z,5.10
2023-03-18T04:22:11.593Z,4.67
2023-03-18T04:27:18.535Z,5.17
2023-03-18T04:32:26.418Z,5.53
2023-03-18T04:37:31.828Z,4.30
2023-03-18T04:42:38.972Z,5.03
2023-03-18T04:47:49.524Z,5.57
2023-03-18T04:52:57.200Z,5.47
2023-03-18T04:58:07.202Z,4.50
2023-03-18T05:03:21.324Z,4.83
2023-03-18T05:08:28.045Z,5.13
2023-03-18T05:13:35.390Z,5.30
2023-03-18T05:18:46.386Z,4.73
2023-03-18T05:23:52.131Z,5.03
2023-03-18T05:29:00.221Z,5.60
2023-03-18T05:34:17.566Z,5.47
2023-03-18T05:39:25.310Z,5.00
2023-03-18T05:44:35.622Z,5.70
2023-03-18T05:49:45.724Z,6.57
2023-03-18T05:54:55.974Z,4.90
2023-03-18T06:00:07.008Z,5.20
2023-03-18T06:05:27.281Z,4.97
2023-03-18T06:10:32.544Z,5.10
2023-03-18T06:15:41.929Z,4.90
2023-03-18T06:21:01.488Z,5.37
2023-03-18T06:26:08.849Z,6.00
2023-03-18T06:31:24.545Z,5.47
2023-03-18T06:36:33.639Z,5.93
2023-03-18T06:41:41.859Z,5.20
2023-03-18T06:47:16.837Z,4.60
2023-03-18T06:52:35.143Z,4.97
2023-03-18T06:57:49.690Z,4.60
2023-03-18T07:03:06.762Z,4.90
2023-03-18T07:08:19.008Z,5.07
2023-03-18T07:13:25.278Z,4.40
2023-03-18T07:18:31.149Z,5.50
2023-03-18T07:23:41.276Z,5.10
2023-03-18T07:28:53.542Z,5.37
2023-03-18T07:33:59.311Z,5.00
2023-03-18T07:39:07.296Z,5.27
2023-03-18T07:44:13.075Z,5.13
2023-03-18T07:49:18.611Z,4.70
2023-03-18T07:54:27.354Z,4.80
2023-03-18T07:59:35.835Z,5.20
2023-03-18T08:04:42.561Z,4.50
2023-03-18T08:09:53.492Z,5.20
2023-03-18T08:14:59.983Z,5.10
2023-03-18T08:20:06.338Z,5.03
2023-03-18T08:25:14.602Z,4.83
2023-03-18T08:30:20.560Z,4.50
2023-03-18T08:35:26.670Z,5.30
2023-03-18T08:40:34.906Z,5.03
2023-03-18T08:45:45.068Z,5.17
2023-03-18T08:50:50.093Z,5.10
2023-03-18T08:56:03.262Z,4.53
2023-03-18T09:01:10.777Z,4.63
2023-03-18T09:06:19.926Z,5.07
2023-03-18T09:11:29.787Z,5.10
2023-03-18T09:16:38.099Z,5.20
2023-03-18T09:21:49.199Z,5.40
2023-03-18T09:26:56.857Z,5.23
2023-03-18T09:32:01.968Z,4.93
2023-03-18T09:37:13.114Z,4.60
2023-03-18T09:42:47.951Z,4.80
2023-03-18T09:48:12.704Z,5.50
2023-03-18T09:53:25.056Z,5.20
2023-03-18T09:58:51.692Z,5.60
2023-03-18T10:04:04.735Z,5.23
2023-03-18T10:09:17.092Z,5.30
2023-03-18T10:14:45.479Z,4.93
2023-03-18T10:19:54.764Z,5.17
2023-03-18T10:25:10.246Z,5.10
2023-03-18T10:30:34.582Z,5.50
2023-03-18T10:35:46.536Z,5.30
2023-03-18T10:40:51.824Z,4.80
2023-03-18T10:46:04.630Z,5.73
2023-03-18T10:51:18.715Z,5.37
2023-03-18T10:56:23.996Z,5.37
2023-03-18T11:01:32.365Z,4.90
2023-03-18T11:06:45.373Z,5.30
2023-03-18T11:11:51.837Z,5.33
2023-03-18T11:17:04.635Z,5.00
2023-03-18T11:22:22.667Z,4.90
2023-03-18T11:27:32.457Z,4.83
2023-03-18T11:32:42.467Z,5.40
2023-03-18T11:37:52.441Z,5.50
2023-03-18T11:43:00.270Z,6.23
2023-03-18T11:48:15.413Z,5.63
2023-03-18T11:53:29.127Z,5.20
2023-03-18T11:58:53.687Z,5.60
2023-03-18T12:04:25.570Z,5.77
2023-03-18T12:09:42.405Z,6.57
2023-03-18T12:14:53.954Z,5.57
2023-03-18T12:20:33.520Z,5.87
2023-03-18T12:26:00.036Z,6.20
2023-03-18T12:31:15.762Z,5.33
2023-03-18T12:36:35.357Z,5.23
2023-03-18T12:41:53.389Z,5.27
2023-03-18T12:47:06.829Z,5.47
2023-03-18T12:52:31.955Z,6.33
2023-03-18T12:57:48.709Z,5.90
2023-03-18T13:03:07.739Z,6.30
2023-03-18T13:08:40.810Z,6.33
2023-03-18T13:13:53.280Z,6.33
2023-03-18T13:19:04.607Z,5.50
2023-03-18T13:24:34.671Z,6.07
2023-03-18T13:29:52.430Z,6.03
2023-03-18T13:35:19.870Z,6.60
2023-03-18T13:40:46.550Z,6.43
2023-03-18T13:45:54.002Z,6.50
2023-03-18T13:51:01.196Z,6.10
2023-03-18T13:56:29.012Z,6.27
2023-03-18T14:01:37.969Z,6.43
2023-03-18T14:06:54.392Z,6.77
2023-03-18T14:12:07.149Z,6.87
2023-03-18T14:17:25.792Z,6.50
2023-03-18T14:22:38.035Z,7.50
2023-03-18T14:27:54.961Z,7.33
2023-03-18T14:33:03.419Z,7.60
2023-03-18T14:38:15.347Z,7.63
2023-03-18T14:43:30.086Z,7.00
2023-03-18T14:48:36.916Z,7.17
2023-03-18T14:53:48.173Z,7.00
2023-03-18T14:58:57.803Z,7.17
2023-03-18T15:04:04.600Z,7.60
2023-03-18T15:09:13.393Z,6.67
2023-03-18T15:14:27.005Z,7.27
2023-03-18T15:19:35.625Z,7.70
2023-03-18T15:24:41.002Z,7.07
2023-03-18T15:29:55.966Z,7.00
2023-03-18T15:35:10.485Z,7.10
2023-03-18T15:40:36.437Z,7.23
2023-03-18T15:45:49.303Z,6.90
2023-03-18T15:50:56.273Z,7.50
2023-03-18T15:56:09.919Z,7.60
2023-03-18T16:01:21.420Z,7.23
2023-03-18T16:06:26.958Z,8.00
2023-03-18T16:11:32.147Z,7.47
2023-03-18T16:16:40.010Z,7.83
2023-03-18T16:21:45.767Z,7.37
2023-03-18T16:26:55.187Z,7.87
2023-03-18T16:32:06.712Z,7.27
2023-03-18T16:37:21.060Z,9.10
2023-03-18T16:42:27.595Z,8.03
2023-03-18T16:47:40.122Z,9.70
2023-03-18T16:52:45.374Z,9.40
2023-03-18T16:57:52.839Z,8.73
2023-03-18T17:03:01.100Z,8.93
2023-03-18T17:08:06.427Z,9.20
2023-03-18T17:13:19.975Z,8.90
2023-03-18T17:18:28.568Z,9.73
2023-03-18T17:23:34.664Z,9.57
2023-03-18T17:28:43.275Z,10.10
2023-03-18T17:33:51.438Z,10.30
2023-03-18T17:38:58.954Z,10.57
2023-03-18T17:44:03.938Z,10.53
2023-03-18T17:49:15.725Z,10.50
2023-03-18T17:54:24.450Z,10.73
2023-03-18T17:59:32.178Z,10.97
2023-03-18T18:04:42.855Z,10.97
2023-03-18T18:09:52.087Z,10.63
2023-03-18T18:14:57.332Z,10.37
2023-03-18T18:20:07.136Z,11.27
2023-03-18T18:25:19.973Z,12.73
2023-03-18T18:30:28.624Z,11.63
2023-03-18T18:35:36.570Z,12.80
2023-03-18T18:40:43.854Z,12.33
2023-03-18T18:45:49.169Z,12.03
2023-03-18T18:51:00.164Z,12.67
2023-03-18T18:56:15.564Z,12.17
2023-03-18T19:01:23.377Z,11.33
2023-03-18T19:06:33.460Z,12.33
2023-03-18T19:11:48.470Z,12.93
2023-03-18T19:16:54.456Z,11.70
2023-03-18T19:22:10.318Z,13.67
2023-03-18T19:27:21.965Z,12.83
2023-03-18T19:32:31.691Z,13.00
2023-03-18T19:37:44.831Z,12.90
2023-03-18T19:42:50.241Z,12.33
2023-03-18T19:47:57.430Z,12.23
2023-03-18T19:53:15.154Z,13.37
2023-03-18T19:58:30.405Z,13.37
2023-03-18T20:03:36.093Z,12.47
2023-03-18T20:08:46.219Z,13.67
2023-03-18T20:13:56.370Z,13.23
2023-03-18T20:19:03.394Z,14.63
2023-03-18T20:24:19.916Z,13.77
2023-03-18T20:29:29.875Z,14.37
2023-03-18T20:34:38.514Z,13.20
2023-03-18T20:39:46.410Z,13.80
2023-03-18T20:44:52.663Z,13.27
2023-03-18T20:49:57.963Z,13.13
2023-03-18T20:55:08.040Z,13.50
2023-03-18T21:00:18.913Z,13.83
2023-03-18T21:05:25.561Z,12.83
2023-03-18T21:10:34.999Z,13.17
2023-03-18T21:15:42.768Z,12.63
2023-03-18T21:20:48.400Z,14.57
2023-03-18T21:25:57.647Z,13.93
2023-03-18T21:31:05.312Z,13.97
2023-03-18T21:36:13.089Z,11.73
2023-03-18T21:41:27.177Z,13.17
2023-03-18T21:46:33.658Z,13.37
2023-03-18T21:51:40.498Z,12.73
2023-03-18T21:56:51.749Z,12.80
2023-03-18T22:02:00.445Z,12.00
2023-03-18T22:07:06.137Z,12.17
2023-03-18T22:12:19.130Z,11.63
2023-03-18T22:17:29.750Z,13.13
2023-03-18T22:22:40.522Z,11.93
2023-03-18T22:27:50.086Z,12.63
2023-03-18T22:32:56.394Z,13.17
2023-03-18T22:38:01.761Z,12.07
2023-03-18T22:43:21.663Z,11.50
2023-03-18T22:48:26.838Z,12.07
2023-03-18T22:53:36.471Z,12.03
2023-03-18T22:58:54.368Z,12.77
2023-03-18T23:04:00.454Z,11.83
2023-03-18T23:09:08.293Z,12.70
2023-03-18T23:14:19.717Z,11.57
2023-03-18T23:19:27.332Z,13.07
2023-03-18T23:24:33.093Z,14.17
2023-03-18T23:29:43.483Z,13.23
2023-03-18T23:34:49.767Z,13.73
2023-03-18T23:39:57.057Z,11.83
2023-03-18T23:45:07.697Z,12.43
2023-03-18T23:50:14.554Z,12.80
2023-03-18T23:55:33.718Z,13.00
